Briefing drone pour Garchizy

Rechercher une autre localisation

Conditions de vol :


Nous sommes le : Mercredi 07 décembre 2022
Il est 19:47 UTC (20:47 LT)

Lever de soleil : 06:53 UTC (07:53 LT)
Coucher de soleil : 16:24 UTC (17:24 LT)

Météo

L'essentiel des conditions de vol

VIGILANCE MÉTÉO FRANCE - Nièvre (58)
Pas de vigilances particulieres
METAR de LFQG
LFQG 071800Z AUTO 00000KT CAVOK M01/M02 Q1016

Date d'émission: 07/12/2022
Heure d'émission: 18:00 UTC
Vent: Calme
Visibilité horizontale: > 10 km
Plafond : Plafond et visibilité OK (CAVOK)
Température: -1 °C
Point de rosée: -2 °C
Humidité: 93%
Pression (QNH): 1016 hPa
Prévision 24h pour Nevers (6 km)
Vent : 73° pour 1 KT (4 km/h)
Temperature Maxi: 4 °C
Temperature Min: 4 °C
Humidité : 67%
Condition : Peu nuageux



Warning: count(): Parameter must be an array or an object that implements Countable in /homepages/6/d509196549/htdocs/droneoxygene/briefing.php on line 743
WEBCAM POUR GARCHIZY

Réglementation

Voler en sécurité

CARTES AERONAUTIQUE 1/500.000
CARTE AZBA (Reseau basse altitude)
CARTES VAC (LFQG)
SUP AIP




Chargement des AIP...
NOTAM (GARCHIZY + Terrain à proximité / FIR )




Chargement des NOTAMS...
CONTACT PREFECTURE 58


Avertissement : Les données mises à disposition sont indicatives. Oxygène Drone ne pourra être tenu responsable de dégâts causés aux biens et aux personnes.